TimeCST,TemperatureF,Dew PointF,Humidity,Sea Level PressureIn,VisibilityMPH,Wind Direction,Wind SpeedMPH,Gust SpeedMPH,PrecipitationIn,Events,Conditions,WindDirDegrees,DateUTC
12:00 AM,67,57,62,29.79,12,East,12.7,,,,Scattered Clouds,80,2013-02-20 06:00:00
12:00 AM,66.2,57.2,73,29.98,6.2,East,12.7,24.2,N/A,,Partly Cloudy,80,2013-02-20 06:00:00
1:00 AM,68.0,55.4,64,29.96,6.2,ENE,16.1,-,N/A,,Partly Cloudy,70,2013-02-20 07:00:00
2:00 AM,68.0,53.6,60,29.94,6.2,East,11.5,-,N/A,,Partly Cloudy,100,2013-02-20 08:00:00
3:00 AM,66.2,53.6,64,29.93,6.2,East,13.8,-,N/A,,Partly Cloudy,100,2013-02-20 09:00:00
4:00 AM,66.2,53.6,64,29.93,6.2,East,15.0,-,N/A,,Partly Cloudy,100,2013-02-20 10:00:00
5:00 AM,68.0,53.6,60,29.93,6.2,East,15.0,-,N/A,,Partly Cloudy,80,2013-02-20 11:00:00
6:00 AM,68,51,45,29.82,12,East,13.8,,,,Scattered Clouds,100,2013-02-20 12:00:00
6:00 AM,68.0,51.8,56,29.95,6.2,East,13.8,25.3,N/A,,Partly Cloudy,100,2013-02-20 12:00:00
7:00 AM,71.6,48.2,43,29.96,-9999.0,East,13.8,25.3,N/A,,Clear,90,2013-02-20 13:00:00
8:00 AM,73.4,48.2,41,29.97,-9999.0,East,12.7,25.3,N/A,,Clear,100,2013-02-20 14:00:00
9:00 AM,78,51,27,29.82,12,East,12.7,,,,,90,2013-02-20 15:00:00
9:00 AM,77.0,50.0,39,29.98,-9999.0,East,12.7,-,N/A,,Clear,90,2013-02-20 15:00:00
10:00 AM,80.6,50.0,34,29.97,-9999.0,North,-9999.0,-,N/A,,Clear,0,2013-02-20 16:00:00
11:00 AM,82.4,51.8,35,29.96,-9999.0,ESE,13.8,25.3,N/A,,Clear,110,2013-02-20 17:00:00
12:00 PM,83,54,26,29.76,12,East,12.7,,,,,100,2013-02-20 18:00:00
12:00 PM,82.4,53.6,37,29.93,-9999.0,East,12.7,24.2,N/A,,Clear,100,2013-02-20 18:00:00
1:00 PM,84.2,55.4,37,29.91,-9999.0,ESE,13.8,25.3,N/A,,Clear,110,2013-02-20 19:00:00
2:00 PM,82.4,57.2,42,29.89,6.2,East,13.8,-,N/A,,Partly Cloudy,80,2013-02-20 20:00:00
3:00 PM,83,56,29,29.73,12,East,12.7,,,,Scattered Clouds,80,2013-02-20 21:00:00
3:00 PM,82.4,55.4,39,29.87,6.2,East,12.7,-,N/A,,Partly Cloudy,80,2013-02-20 21:00:00
4:00 PM,80.6,57.2,45,29.87,6.2,East,12.7,24.2,N/A,,Scattered Clouds,80,2013-02-20 22:00:00
5:00 PM,77.0,57.2,50,29.89,6.2,East,11.5,-,N/A,,Scattered Clouds,90,2013-02-20 23:00:00
6:00 PM,74,60,53,29.75,12,East,13.8,,,,Scattered Clouds,90,2013-02-21 00:00:00
6:00 PM,73.4,60.8,65,29.91,6.2,East,13.8,25.3,N/A,,Partly Cloudy,90,2013-02-21 00:00:00
7:00 PM,71.6,59.0,64,29.93,6.2,East,11.5,-,N/A,,Partly Cloudy,90,2013-02-21 01:00:00
8:00 PM,71.6,60.8,69,29.96,6.2,ESE,11.5,24.2,N/A,,Partly Cloudy,110,2013-02-21 02:00:00
9:00 PM,71,61,63,29.79,12,ESE,24.2,,,,Scattered Clouds,120,2013-02-21 03:00:00
9:00 PM,71.6,60.8,69,29.96,6.2,ESE,12.7,24.2,N/A,,Partly Cloudy,120,2013-02-21 03:00:00
10:00 PM,71.6,60.8,69,29.97,6.2,East,12.7,-,N/A,,Partly Cloudy,100,2013-02-21 04:00:00
11:00 PM,69.8,59.0,68,29.97,6.2,East,12.7,24.2,N/A,,Partly Cloudy,100,2013-02-21 05:00:00